createdAt,value
2022-11-05T00:00:39.045Z,36.10
2022-11-05T00:03:25.361Z,35.78
2022-11-05T00:06:12.377Z,33.55
2022-11-05T00:08:59.287Z,38.45
2022-11-05T00:11:42.991Z,32.58
2022-11-05T00:14:28.998Z,32.25
2022-11-05T00:16:57.357Z,35.53
2022-11-05T00:19:25.854Z,35.13
2022-11-05T00:22:11.535Z,36.20
2022-11-05T00:24:57.442Z,34.90
2022-11-05T00:27:28.184Z,33.75
2022-11-05T00:29:56.983Z,32.60
2022-11-05T00:32:25.588Z,30.73
2022-11-05T00:34:54.295Z,33.83
2022-11-05T00:37:22.588Z,34.78
2022-11-05T00:39:50.907Z,35.72
2022-11-05T00:42:37.212Z,32.38
2022-11-05T00:45:09.434Z,32.17
2022-11-05T00:47:55.393Z,29.27
2022-11-05T00:50:24.052Z,29.08
2022-11-05T00:52:56.544Z,32.90
2022-11-05T00:55:28.244Z,31.10
2022-11-05T00:57:57.370Z,26.60
2022-11-05T01:00:30.472Z,29.60
2022-11-05T01:03:00.678Z,28.42
2022-11-05T01:05:30.939Z,25.70
2022-11-05T01:08:00.164Z,29.23
2022-11-05T01:10:29.028Z,31.00
2022-11-05T01:12:57.586Z,25.70
2022-11-05T01:15:27.976Z,27.15
2022-11-05T01:17:56.568Z,32.35
2022-11-05T01:20:24.981Z,27.73
2022-11-05T01:22:53.367Z,33.15
2022-11-05T01:25:21.680Z,29.75
2022-11-05T01:27:49.983Z,32.90
2022-11-05T01:30:18.462Z,34.85
2022-11-05T01:32:48.093Z,30.45
2022-11-05T01:35:19.044Z,28.95
2022-11-05T01:37:47.742Z,30.13
2022-11-05T01:40:19.439Z,23.75
2022-11-05T01:42:48.607Z,28.25
2022-11-05T01:45:22.265Z,27.20
2022-11-05T01:48:02.547Z,34.17
2022-11-05T01:50:43.891Z,27.35
2022-11-05T01:53:22.986Z,27.30
2022-11-05T01:55:58.695Z,27.05
2022-11-05T01:58:33.617Z,26.75
2022-11-05T02:01:02.333Z,29.10
2022-11-05T02:03:33.257Z,27.38
2022-11-05T02:06:03.775Z,28.23
2022-11-05T02:08:50.289Z,25.60
2022-11-05T02:11:21.164Z,26.83
2022-11-05T02:13:50.607Z,27.85
2022-11-05T02:16:36.614Z,32.28
2022-11-05T02:19:50.649Z,29.77
2022-11-05T02:23:29.046Z,34.58
2022-11-05T02:26:33.909Z,33.38
2022-11-05T02:29:55.259Z,36.75
2022-11-05T02:32:51.503Z,39.00
2022-11-05T02:35:33.431Z,40.00
2022-11-05T02:38:10.276Z,36.75
2022-11-05T02:40:50.770Z,39.85
2022-11-05T02:43:30.820Z,37.72
2022-11-05T02:46:16.417Z,36.45
2022-11-05T02:48:55.064Z,38.92
2022-11-05T02:51:32.496Z,42.28
2022-11-05T02:54:13.683Z,36.42
2022-11-05T02:56:46.172Z,37.08
2022-11-05T02:59:14.397Z,41.70
2022-11-05T03:01:44.877Z,44.97
2022-11-05T03:04:17.384Z,40.42
2022-11-05T03:07:20.628Z,41.30
2022-11-05T03:10:28.337Z,46.35
2022-11-05T03:13:11.051Z,42.40
2022-11-05T03:18:31.464Z,52.22
2022-11-05T03:21:08.334Z,54.22
2022-11-05T03:23:44.017Z,56.25
2022-11-05T03:26:20.127Z,53.38
2022-11-05T03:28:55.686Z,63.13
2022-11-05T03:31:25.664Z,54.80
2022-11-05T03:33:56.688Z,57.92
2022-11-05T03:36:33.167Z,65.70
2022-11-05T03:39:08.934Z,61.13
2022-11-05T03:41:40.444Z,60.85
2022-11-05T03:44:10.631Z,68.80
2022-11-05T03:46:44.237Z,66.18
2022-11-05T03:49:19.294Z,64.78
2022-11-05T03:51:55.114Z,60.67
2022-11-05T03:54:24.021Z,63.13
2022-11-05T03:57:04.336Z,62.78
2022-11-05T03:59:39.636Z,60.75
2022-11-05T04:02:08.203Z,60.15
2022-11-05T04:04:36.539Z,64.88
2022-11-05T04:07:24.268Z,62.00
2022-11-05T04:10:09.507Z,61.45
2022-11-05T04:12:55.300Z,60.70
2022-11-05T04:15:24.774Z,63.65
2022-11-05T04:17:52.234Z,64.03
2022-11-05T04:20:38.151Z,58.88
2022-11-05T04:23:40.488Z,62.35
2022-11-05T04:26:09.065Z,62.80
2022-11-05T04:28:51.086Z,57.72
2022-11-05T04:31:19.575Z,62.83
2022-11-05T04:33:48.797Z,62.65
2022-11-05T04:36:19.725Z,62.08
2022-11-05T04:38:50.447Z,59.60
2022-11-05T04:41:19.293Z,58.42
2022-11-05T04:43:47.487Z,58.58
2022-11-05T04:46:16.911Z,52.70
2022-11-05T04:48:45.218Z,55.13
2022-11-05T04:51:13.407Z,60.63
2022-11-05T04:53:41.745Z,56.45
2022-11-05T04:56:13.291Z,55.40
2022-11-05T04:58:42.647Z,54.63
2022-11-05T05:01:14.499Z,59.25
2022-11-05T05:03:43.085Z,53.65
2022-11-05T05:06:12.612Z,59.70
2022-11-05T05:08:40.836Z,59.30
2022-11-05T05:11:18.265Z,56.13
2022-11-05T05:13:46.881Z,56.25
2022-11-05T05:16:22.501Z,59.72
2022-11-05T05:18:51.546Z,53.42
2022-11-05T05:21:39.528Z,52.10
2022-11-05T05:24:10.403Z,59.40
2022-11-05T05:26:42.252Z,56.05
2022-11-05T05:29:11.464Z,55.87
2022-11-05T05:31:40.451Z,59.90
2022-11-05T05:34:11.948Z,50.67
2022-11-05T05:36:40.690Z,55.35
2022-11-05T05:39:10.777Z,52.20
2022-11-05T05:41:40.446Z,44.83
2022-11-05T05:44:10.148Z,54.83
2022-11-05T05:46:38.718Z,47.33
2022-11-05T05:49:12.364Z,51.47
2022-11-05T05:51:42.731Z,50.72
2022-11-05T05:54:13.029Z,48.70
2022-11-05T05:56:44.349Z,45.90
2022-11-05T05:59:13.315Z,45.28
2022-11-05T06:01:41.709Z,41.30
2022-11-05T06:04:11.159Z,44.05
2022-11-05T06:06:39.647Z,41.45
2022-11-05T06:09:08.235Z,42.10
2022-11-05T06:11:37.408Z,39.65
2022-11-05T06:14:08.118Z,42.40
2022-11-05T06:16:38.982Z,38.05
2022-11-05T06:19:07.735Z,40.38
2022-11-05T06:21:36.527Z,39.30
2022-11-05T06:24:05.331Z,37.53
2022-11-05T06:26:33.926Z,37.50
2022-11-05T06:29:02.202Z,39.17
2022-11-05T06:31:31.872Z,38.95
2022-11-05T06:34:00.106Z,38.85
2022-11-05T06:36:28.477Z,39.88
2022-11-05T06:38:57.147Z,37.70
2022-11-05T06:41:25.582Z,35.33
2022-11-05T06:43:54.203Z,38.15
2022-11-05T06:46:22.640Z,35.72
2022-11-05T06:48:52.469Z,37.60
2022-11-05T06:51:20.774Z,38.13
2022-11-05T06:53:49.253Z,36.38
2022-11-05T06:56:17.429Z,39.20
2022-11-05T06:58:45.644Z,41.03
2022-11-05T07:01:15.153Z,35.35
2022-11-05T07:03:45.072Z,34.97
2022-11-05T07:06:15.101Z,38.10
2022-11-05T07:08:43.361Z,35.40
2022-11-05T07:11:11.593Z,37.90
2022-11-05T07:13:39.804Z,34.72
2022-11-05T07:16:08.707Z,41.17
2022-11-05T07:18:37.137Z,36.90
2022-11-05T07:21:05.923Z,35.92
2022-11-05T07:23:35.799Z,33.10
2022-11-05T07:26:04.201Z,34.67
2022-11-05T07:28:32.438Z,31.13
2022-11-05T07:31:00.857Z,34.20
2022-11-05T07:33:36.158Z,30.63
2022-11-05T07:36:05.224Z,33.65
2022-11-05T07:38:35.089Z,31.80
2022-11-05T07:41:03.406Z,32.08
2022-11-05T07:43:31.850Z,27.70
2022-11-05T07:46:00.347Z,30.92
2022-11-05T07:48:28.500Z,30.77
2022-11-05T07:50:56.729Z,35.40
2022-11-05T07:53:24.958Z,30.23
2022-11-05T07:55:57.044Z,30.20
2022-11-05T07:58:25.377Z,31.33
2022-11-05T08:00:54.001Z,32.30
2022-11-05T08:03:22.612Z,29.27
2022-11-05T08:05:52.097Z,34.55
2022-11-05T08:08:21.085Z,28.88
2022-11-05T08:10:50.623Z,30.08
2022-11-05T08:13:20.514Z,33.80
2022-11-05T08:15:48.877Z,34.15
2022-11-05T08:18:18.824Z,30.88
2022-11-05T08:20:48.471Z,32.70
2022-11-05T08:23:17.180Z,31.25
2022-11-05T08:25:45.405Z,33.33
2022-11-05T08:28:14.517Z,35.63
2022-11-05T08:30:44.175Z,34.60
2022-11-05T08:33:15.478Z,32.50
2022-11-05T08:35:44.437Z,30.48
2022-11-05T08:38:15.417Z,35.30
2022-11-05T08:40:46.903Z,31.33
2022-11-05T08:43:15.871Z,29.13
2022-11-05T08:45:46.329Z,31.70
2022-11-05T08:48:17.149Z,24.65
2022-11-05T08:50:47.237Z,28.17
2022-11-05T08:53:17.254Z,24.65
2022-11-05T08:55:47.648Z,22.83
2022-11-05T08:58:17.367Z,27.00
2022-11-05T09:00:49.532Z,24.70
2022-11-05T09:03:18.936Z,27.10
2022-11-05T09:05:47.595Z,21.40
2022-11-05T09:08:18.464Z,22.45
2022-11-05T09:10:49.724Z,20.05
2022-11-05T09:13:20.025Z,21.80
2022-11-05T09:15:51.125Z,18.75
2022-11-05T09:18:22.249Z,23.63
2022-11-05T09:20:50.532Z,18.27
2022-11-05T09:23:18.847Z,16.27
2022-11-05T09:25:47.874Z,19.85
2022-11-05T09:28:19.081Z,19.67
2022-11-05T09:30:51.142Z,17.35
2022-11-05T09:33:22.419Z,19.70
2022-11-05T09:35:52.679Z,18.40
2022-11-05T09:38:21.663Z,17.65
2022-11-05T09:40:57.541Z,18.30
2022-11-05T09:43:34.731Z,15.80
2022-11-05T09:46:13.537Z,17.30
2022-11-05T09:48:43.210Z,14.60
2022-11-05T09:51:20.822Z,17.77
2022-11-05T09:53:53.586Z,18.58
2022-11-05T09:56:26.216Z,18.77
2022-11-05T09:59:01.320Z,17.20
2022-11-05T10:01:36.820Z,16.48
2022-11-05T10:04:10.751Z,13.38
2022-11-05T10:06:47.056Z,14.38
2022-11-05T10:09:23.624Z,14.55
2022-11-05T10:11:59.326Z,15.98
2022-11-05T10:14:32.261Z,15.95
2022-11-05T10:17:11.079Z,17.30
2022-11-05T10:19:47.697Z,15.80
2022-11-05T10:22:19.303Z,15.23
2022-11-05T10:24:50.211Z,14.88
2022-11-05T10:27:23.189Z,13.18
2022-11-05T10:29:52.438Z,15.77
2022-11-05T10:32:30.592Z,14.82
2022-11-05T10:35:02.761Z,10.18
2022-11-05T10:37:38.232Z,16.35
2022-11-05T10:40:21.843Z,15.18
2022-11-05T10:43:04.428Z,15.98
2022-11-05T10:45:47.259Z,10.32
2022-11-05T10:48:57.180Z,13.95
2022-11-05T10:51:26.672Z,16.02
2022-11-05T10:54:01.883Z,14.45
2022-11-05T10:56:34.156Z,12.55
2022-11-05T10:59:07.961Z,12.57
2022-11-05T11:01:41.436Z,13.20
2022-11-05T11:04:22.658Z,15.95
2022-11-05T11:06:53.695Z,12.48
2022-11-05T11:09:26.626Z,13.75
2022-11-05T11:12:05.732Z,16.17
2022-11-05T11:14:35.183Z,14.27
2022-11-05T11:17:27.933Z,18.42
2022-11-05T11:20:29.018Z,10.57
2022-11-05T11:23:11.611Z,15.88
2022-11-05T11:25:48.231Z,15.38
2022-11-05T11:28:23.742Z,14.65
2022-11-05T11:30:58.429Z,17.33
2022-11-05T11:33:29.793Z,15.30
2022-11-05T11:36:00.546Z,12.88
2022-11-05T11:38:33.796Z,14.98
2022-11-05T11:41:18.293Z,16.90
2022-11-05T11:43:48.464Z,13.63
2022-11-05T11:46:19.928Z,11.93
2022-11-05T11:48:55.562Z,12.82
2022-11-05T11:51:36.774Z,10.82
2022-11-05T11:54:07.027Z,11.48
2022-11-05T11:56:46.409Z,16.60
2022-11-05T11:59:40.852Z,11.10
2022-11-05T12:02:36.833Z,12.23
2022-11-05T12:05:18.790Z,14.07
2022-11-05T12:07:54.722Z,12.65
2022-11-05T12:10:37.518Z,11.73
2022-11-05T12:13:50.147Z,11.95
2022-11-05T12:16:50.715Z,8.20
2022-11-05T12:19:33.017Z,7.45
2022-11-05T12:22:13.929Z,9.88
2022-11-05T12:25:15.153Z,5.85
2022-11-05T12:28:03.202Z,8.70
2022-11-05T12:30:53.251Z,10.02
2022-11-05T12:33:37.688Z,8.93
2022-11-05T12:36:23.017Z,8.93
2022-11-05T12:39:19.236Z,5.55
2022-11-05T12:42:00.007Z,9.70
2022-11-05T12:44:54.156Z,7.25
2022-11-05T12:47:43.985Z,5.35
2022-11-05T12:50:22.065Z,7.10
2022-11-05T12:53:39.532Z,7.03
2022-11-05T12:56:16.263Z,8.15
2022-11-05T12:58:52.135Z,8.63
2022-11-05T13:01:30.148Z,8.07
2022-11-05T13:04:01.902Z,6.50
2022-11-05T13:06:35.530Z,7.45
2022-11-05T13:09:10.024Z,11.65
2022-11-05T13:11:45.275Z,4.57
2022-11-05T13:14:18.603Z,6.25
2022-11-05T13:16:51.739Z,7.55
2022-11-05T13:19:24.992Z,4.78
2022-11-05T13:21:59.209Z,6.35
2022-11-05T13:24:37.347Z,6.30
2022-11-05T13:27:24.791Z,5.05
2022-11-05T13:29:59.161Z,9.05
2022-11-05T13:32:32.971Z,5.93
2022-11-05T13:35:04.867Z,9.50
2022-11-05T13:37:55.372Z,5.30
2022-11-05T13:40:33.600Z,6.05
2022-11-05T13:43:23.813Z,5.38
2022-11-05T13:46:44.959Z,6.45
2022-11-05T13:49:51.262Z,6.05
2022-11-05T13:52:43.880Z,5.50
2022-11-05T13:55:33.555Z,5.72
2022-11-05T13:58:30.166Z,7.38
2022-11-05T14:01:10.875Z,7.03
2022-11-05T14:03:40.582Z,4.70
2022-11-05T14:06:11.927Z,7.70
2022-11-05T14:08:46.031Z,8.40
2022-11-05T14:11:24.927Z,5.80
2022-11-05T14:13:57.883Z,5.00
2022-11-05T14:16:40.934Z,6.93
2022-11-05T14:19:36.238Z,5.75
2022-11-05T14:22:30.390Z,7.75
2022-11-05T14:24:59.187Z,6.97
2022-11-05T14:27:45.869Z,5.15
2022-11-05T14:30:46.503Z,7.43
2022-11-05T14:33:33.449Z,7.13
2022-11-05T14:36:35.595Z,5.68
2022-11-05T14:39:27.387Z,7.72
2022-11-05T14:42:03.745Z,5.85
2022-11-05T14:44:35.698Z,5.90
2022-11-05T14:47:08.953Z,5.05
2022-11-05T14:49:51.288Z,6.55
2022-11-05T14:52:20.977Z,5.75
2022-11-05T14:54:53.337Z,5.85
2022-11-05T14:58:18.757Z,7.88
2022-11-05T15:00:50.416Z,7.50
2022-11-05T15:04:18.820Z,4.70
2022-11-05T15:07:33.675Z,8.80
2022-11-05T15:10:10.582Z,9.75
2022-11-05T15:12:46.988Z,7.25
2022-11-05T15:15:23.798Z,6.72
2022-11-05T15:18:03.920Z,7.78
2022-11-05T15:20:40.533Z,9.05
2022-11-05T15:23:25.391Z,8.93
2022-11-05T15:26:03.900Z,6.00
2022-11-05T15:28:39.989Z,7.72
2022-11-05T15:31:27.472Z,7.90
2022-11-05T15:34:20.328Z,9.30
2022-11-05T15:36:54.859Z,7.10
2022-11-05T15:39:32.988Z,8.57
2022-11-05T15:42:06.802Z,7.55
2022-11-05T15:44:40.268Z,8.20
2022-11-05T15:47:24.763Z,8.52
2022-11-05T15:49:56.587Z,9.88
2022-11-05T15:52:32.014Z,8.17
2022-11-05T15:55:23.561Z,6.65
2022-11-05T15:57:57.995Z,7.18
2022-11-05T16:00:29.624Z,7.68
2022-11-05T16:03:01.772Z,7.13
2022-11-05T16:05:33.464Z,9.38
2022-11-05T16:08:04.167Z,5.18
2022-11-05T16:10:37.828Z,9.85
2022-11-05T16:13:33.398Z,9.02
2022-11-05T16:16:05.455Z,6.68
2022-11-05T16:18:37.715Z,10.10
2022-11-05T16:21:09.077Z,9.88
2022-11-05T16:23:47.072Z,8.50
2022-11-05T16:27:01.291Z,9.10
2022-11-05T16:29:31.467Z,6.05
2022-11-05T16:32:01.712Z,8.35
2022-11-05T16:34:37.646Z,7.75
2022-11-05T16:37:08.878Z,7.97
2022-11-05T16:39:40.861Z,8.52
2022-11-05T16:42:40.030Z,10.13
2022-11-05T16:45:13.622Z,8.48
2022-11-05T16:47:43.064Z,9.45
2022-11-05T16:50:22.545Z,8.07
2022-11-05T16:52:51.221Z,8.55
2022-11-05T16:55:20.337Z,6.65
2022-11-05T16:57:54.084Z,10.27
2022-11-05T17:00:23.808Z,12.25
2022-11-05T17:02:52.701Z,8.90
2022-11-05T17:05:26.076Z,13.77
2022-11-05T17:07:55.908Z,11.13
2022-11-05T17:10:26.545Z,9.20
2022-11-05T17:12:57.857Z,8.35
2022-11-05T17:15:29.266Z,7.78
2022-11-05T17:17:59.938Z,13.32
2022-11-05T17:20:40.216Z,10.18
2022-11-05T17:23:12.175Z,11.15
2022-11-05T17:25:41.908Z,12.70
2022-11-05T17:28:12.862Z,13.43
2022-11-05T17:30:42.235Z,11.55
2022-11-05T17:33:11.849Z,10.80
2022-11-05T17:35:41.627Z,13.70
2022-11-05T17:38:10.021Z,15.40
2022-11-05T17:40:39.805Z,9.13
2022-11-05T17:43:08.533Z,11.20
2022-11-05T17:45:43.791Z,7.57
2022-11-05T17:48:12.359Z,9.68
2022-11-05T17:50:45.609Z,11.48
2022-11-05T17:53:15.189Z,12.18
2022-11-05T17:55:45.692Z,10.30
2022-11-05T17:58:14.580Z,11.60
2022-11-05T18:00:46.307Z,11.43
2022-11-05T18:03:16.011Z,10.85
2022-11-05T18:05:44.789Z,9.93
2022-11-05T18:08:13.563Z,11.15
2022-11-05T18:10:42.747Z,13.05
2022-11-05T18:13:12.195Z,10.52
2022-11-05T18:15:41.404Z,10.85
2022-11-05T18:18:11.501Z,11.02
2022-11-05T18:20:40.056Z,14.95
2022-11-05T18:23:08.608Z,13.32
2022-11-05T18:25:37.306Z,10.75
2022-11-05T18:28:06.050Z,10.93
2022-11-05T18:30:35.270Z,8.05
2022-11-05T18:33:03.916Z,14.25
2022-11-05T18:35:33.871Z,11.25
2022-11-05T18:38:02.210Z,14.75
2022-11-05T18:40:30.738Z,12.20
2022-11-05T18:42:58.991Z,12.23
2022-11-05T18:45:29.935Z,9.43
2022-11-05T18:47:59.775Z,11.70
2022-11-05T18:50:30.276Z,13.07
2022-11-05T18:52:59.941Z,13.38
2022-11-05T18:55:28.397Z,10.00
2022-11-05T18:57:58.539Z,7.47
2022-11-05T19:00:28.081Z,8.80
2022-11-05T19:03:00.131Z,8.23
2022-11-05T19:05:30.265Z,13.68
2022-11-05T19:08:00.356Z,10.15
2022-11-05T19:10:29.531Z,11.05
2022-11-05T19:12:58.609Z,9.70
2022-11-05T19:15:27.335Z,8.13
2022-11-05T19:17:55.803Z,11.40
2022-11-05T19:20:24.328Z,9.25
2022-11-05T19:22:52.923Z,11.18
2022-11-05T19:25:22.889Z,9.55
2022-11-05T19:27:51.170Z,9.40
2022-11-05T19:30:19.948Z,8.60
2022-11-05T19:32:48.218Z,8.93
2022-11-05T19:35:16.666Z,8.13
2022-11-05T19:37:45.078Z,7.40
2022-11-05T19:40:13.966Z,6.53
2022-11-05T19:42:43.878Z,11.05
2022-11-05T19:45:38.481Z,9.98
2022-11-05T19:48:00.931Z,11.32
2022-11-05T19:50:29.224Z,9.10
2022-11-05T19:52:57.470Z,10.95
2022-11-05T19:55:26.120Z,9.35
2022-11-05T19:57:57.744Z,11.90
2022-11-05T20:00:26.165Z,10.48
2022-11-05T20:02:54.531Z,11.35
2022-11-05T20:05:22.921Z,9.52
2022-11-05T20:07:53.279Z,9.13
2022-11-05T20:10:22.535Z,7.15
2022-11-05T20:12:51.140Z,9.82
2022-11-05T20:15:21.009Z,7.60
2022-11-05T20:17:51.575Z,10.05
2022-11-05T20:20:20.559Z,8.98
2022-11-05T20:22:49.046Z,10.88
2022-11-05T20:25:17.560Z,8.95
2022-11-05T20:27:46.377Z,10.23
2022-11-05T20:30:16.110Z,10.32
2022-11-05T20:32:45.710Z,8.65
2022-11-05T20:35:14.206Z,9.73
2022-11-05T20:37:42.907Z,12.30
2022-11-05T20:40:13.957Z,10.93
2022-11-05T20:42:43.055Z,8.63
2022-11-05T20:45:12.206Z,6.90
2022-11-05T20:47:40.664Z,11.32
2022-11-05T20:50:11.536Z,10.13
2022-11-05T20:52:40.361Z,9.18
2022-11-05T20:55:10.084Z,8.20
2022-11-05T20:57:39.515Z,7.57
2022-11-05T21:00:09.622Z,14.95
2022-11-05T21:02:41.189Z,8.57
2022-11-05T21:05:11.310Z,15.43
2022-11-05T21:07:39.867Z,20.88
2022-11-05T21:10:08.567Z,10.13
2022-11-05T21:12:36.814Z,9.85
2022-11-05T21:15:06.745Z,8.52
2022-11-05T21:17:35.033Z,9.13
2022-11-05T21:20:03.405Z,10.52
2022-11-05T21:22:33.005Z,11.38
2022-11-05T21:25:01.356Z,11.23
2022-11-05T21:27:29.581Z,8.73
2022-11-05T21:29:57.862Z,9.52
2022-11-05T21:32:26.386Z,7.65
2022-11-05T21:34:54.656Z,6.57
2022-11-05T21:37:24.146Z,11.38
2022-11-05T21:39:54.464Z,10.13
2022-11-05T21:42:22.688Z,11.55
2022-11-05T21:44:52.338Z,9.18
2022-11-05T21:47:24.500Z,9.05
2022-11-05T21:49:52.802Z,13.80
2022-11-05T21:52:35.010Z,8.70
2022-11-05T21:55:37.144Z,12.00
2022-11-05T21:58:31.107Z,8.02
2022-11-05T22:01:00.538Z,7.43
2022-11-05T22:03:29.079Z,10.02
2022-11-05T22:05:58.420Z,8.10
2022-11-05T22:08:28.294Z,9.85
2022-11-05T22:10:57.859Z,11.13
2022-11-05T22:13:27.843Z,9.50
2022-11-05T22:15:56.988Z,10.82
2022-11-05T22:18:25.312Z,13.23
2022-11-05T22:20:54.059Z,11.18
2022-11-05T22:23:22.841Z,6.15
2022-11-05T22:25:51.522Z,9.82
2022-11-05T22:28:22.999Z,7.97
2022-11-05T22:30:51.519Z,8.57
2022-11-05T22:33:19.843Z,9.05
2022-11-05T22:35:48.859Z,13.82
2022-11-05T22:38:17.206Z,10.27
2022-11-05T22:40:45.663Z,11.85
2022-11-05T22:43:14.141Z,11.57
2022-11-05T22:45:45.583Z,11.13
2022-11-05T22:48:14.325Z,14.73
2022-11-05T22:50:43.068Z,8.30
2022-11-05T22:53:11.326Z,10.65
2022-11-05T22:55:41.250Z,8.77
2022-11-05T22:58:09.947Z,12.07
2022-11-05T23:00:40.133Z,9.45
2022-11-05T23:03:10.051Z,11.13
2022-11-05T23:05:39.617Z,11.25
2022-11-05T23:08:25.787Z,8.27
2022-11-05T23:11:23.132Z,9.63
2022-11-05T23:13:51.744Z,9.32
2022-11-05T23:16:37.878Z,10.68
2022-11-05T23:19:25.837Z,8.43
2022-11-05T23:22:11.724Z,9.88
2022-11-05T23:24:40.282Z,7.50
2022-11-05T23:27:10.403Z,8.65
2022-11-05T23:29:38.698Z,7.90
2022-11-05T23:32:24.810Z,8.38
2022-11-05T23:34:58.099Z,9.73
2022-11-05T23:37:46.309Z,12.02
2022-11-05T23:40:18.683Z,7.25
2022-11-05T23:43:05.845Z,10.30
2022-11-05T23:45:52.524Z,6.57
2022-11-05T23:48:29.596Z,10.93
2022-11-05T23:51:06.205Z,8.25
2022-11-05T23:53:37.632Z,10.65
2022-11-05T23:56:09.038Z,11.13
2022-11-05T23:58:39.176Z,10.43
